createdAt,value
2023-02-27T00:00:18.555Z,56.12
2023-02-27T00:02:51.512Z,56.08
2023-02-27T00:05:22.913Z,56.10
2023-02-27T00:07:53.767Z,56.28
2023-02-27T00:10:24.214Z,56.40
2023-02-27T00:12:54.446Z,56.18
2023-02-27T00:15:27.224Z,56.50
2023-02-27T00:17:57.080Z,56.29
2023-02-27T00:20:27.250Z,56.56
2023-02-27T00:22:57.104Z,56.33
2023-02-27T00:25:26.998Z,56.55
2023-02-27T00:27:57.103Z,56.83
2023-02-27T00:30:29.901Z,56.68
2023-02-27T00:33:00.106Z,56.83
2023-02-27T00:35:29.984Z,57.24
2023-02-27T00:37:59.849Z,56.94
2023-02-27T00:40:29.735Z,56.70
2023-02-27T00:43:00.504Z,57.13
2023-02-27T00:45:35.004Z,57.45
2023-02-27T00:48:04.835Z,57.12
2023-02-27T00:50:34.707Z,57.21
2023-02-27T00:53:04.533Z,57.26
2023-02-27T00:55:34.538Z,57.23
2023-02-27T00:58:04.367Z,57.60
2023-02-27T01:00:36.983Z,57.82
2023-02-27T01:03:06.953Z,57.86
2023-02-27T01:05:37.250Z,57.70
2023-02-27T01:08:07.634Z,57.64
2023-02-27T01:10:38.808Z,57.97
2023-02-27T01:13:11.328Z,57.77
2023-02-27T01:15:44.713Z,57.80
2023-02-27T01:18:14.562Z,58.28
2023-02-27T01:20:44.602Z,58.38
2023-02-27T01:23:16.376Z,58.39
2023-02-27T01:25:46.270Z,58.45
2023-02-27T01:28:17.064Z,58.59
2023-02-27T01:30:50.306Z,58.75
2023-02-27T01:33:20.201Z,58.64
2023-02-27T01:35:50.061Z,58.75
2023-02-27T01:38:20.067Z,58.78
2023-02-27T01:40:50.048Z,59.20
2023-02-27T01:43:23.484Z,59.14
2023-02-27T01:45:59.516Z,59.05
2023-02-27T01:48:35.158Z,59.38
2023-02-27T01:51:10.250Z,59.43
2023-02-27T01:53:42.955Z,59.79
2023-02-27T01:56:19.391Z,59.90
2023-02-27T01:58:52.753Z,59.67
2023-02-27T02:01:26.234Z,59.99
2023-02-27T02:04:03.658Z,59.98
2023-02-27T02:06:39.254Z,60.17
2023-02-27T02:09:12.497Z,59.95
2023-02-27T02:11:44.202Z,60.10
2023-02-27T02:14:14.137Z,60.33
2023-02-27T02:17:03.687Z,60.21
2023-02-27T02:20:13.952Z,60.47
2023-02-27T02:23:28.503Z,60.46
2023-02-27T02:26:31.088Z,60.42
2023-02-27T02:29:31.049Z,60.35
2023-02-27T02:32:41.072Z,60.67
2023-02-27T02:36:01.376Z,60.50
2023-02-27T02:39:06.235Z,60.74
2023-02-27T02:41:55.489Z,60.53
2023-02-27T02:44:36.793Z,60.49
2023-02-27T02:47:19.167Z,60.59
2023-02-27T02:50:00.663Z,60.75
2023-02-27T02:52:44.141Z,60.63
2023-02-27T02:55:26.733Z,60.75
2023-02-27T02:58:06.488Z,60.76
2023-02-27T03:00:41.396Z,60.89
2023-02-27T03:03:20.026Z,61.06
2023-02-27T03:05:57.562Z,60.84
2023-02-27T03:08:36.308Z,60.91
2023-02-27T03:11:09.460Z,60.87
2023-02-27T03:13:46.387Z,60.95
2023-02-27T03:16:22.480Z,60.73
2023-02-27T03:18:59.443Z,61.10
2023-02-27T03:21:34.865Z,60.99
2023-02-27T03:24:12.606Z,60.76
2023-02-27T03:26:51.015Z,60.80
2023-02-27T03:29:29.363Z,60.99
2023-02-27T03:32:05.251Z,60.90
2023-02-27T03:34:39.453Z,60.83
2023-02-27T03:37:24.880Z,61.22
2023-02-27T03:40:06.509Z,60.99
2023-02-27T03:42:45.158Z,61.21
2023-02-27T03:45:38.393Z,61.12
2023-02-27T03:48:10.669Z,60.92
2023-02-27T03:50:41.687Z,60.71
2023-02-27T03:53:22.000Z,60.99
2023-02-27T03:55:55.968Z,61.15
2023-02-27T03:58:29.156Z,60.68
2023-02-27T04:00:59.562Z,60.91
2023-02-27T04:03:30.266Z,61.27
2023-02-27T04:06:20.252Z,60.98
2023-02-27T04:08:58.972Z,61.28
2023-02-27T04:11:44.130Z,61.03
2023-02-27T04:14:37.182Z,61.34
2023-02-27T04:17:23.399Z,61.18
2023-02-27T04:20:31.681Z,61.03
2023-02-27T04:23:07.917Z,60.90
2023-02-27T04:26:02.549Z,61.37
2023-02-27T04:28:44.307Z,60.69
2023-02-27T04:31:24.702Z,60.95
2023-02-27T04:34:02.604Z,60.75
2023-02-27T04:36:40.653Z,61.22
2023-02-27T04:39:18.458Z,61.18
2023-02-27T04:41:55.449Z,61.08
2023-02-27T04:44:29.854Z,61.06
2023-02-27T04:47:06.882Z,61.43
2023-02-27T04:49:44.609Z,62.00
2023-02-27T04:52:19.716Z,61.92
2023-02-27T04:54:58.051Z,61.93
2023-02-27T04:57:34.965Z,61.49
2023-02-27T05:00:11.731Z,61.01
2023-02-27T05:02:50.051Z,61.05
2023-02-27T05:05:28.298Z,61.00
2023-02-27T05:08:06.076Z,61.28
2023-02-27T05:10:42.975Z,60.92
2023-02-27T05:13:19.478Z,60.98
2023-02-27T05:15:55.578Z,61.22
2023-02-27T05:18:29.091Z,61.11
2023-02-27T05:21:12.605Z,60.83
2023-02-27T05:23:52.471Z,60.94
2023-02-27T05:26:29.988Z,60.73
2023-02-27T05:29:09.318Z,60.63
2023-02-27T05:31:49.730Z,60.44
2023-02-27T05:34:29.978Z,60.73
2023-02-27T05:37:07.915Z,60.87
2023-02-27T05:39:42.499Z,60.83
2023-02-27T05:42:19.506Z,60.73
2023-02-27T05:44:57.787Z,60.88
2023-02-27T05:47:33.979Z,60.49
2023-02-27T05:50:14.399Z,60.92
2023-02-27T05:52:47.274Z,60.94
2023-02-27T05:55:23.843Z,60.82
2023-02-27T05:58:00.593Z,60.99
2023-02-27T06:00:38.219Z,60.98
2023-02-27T06:03:08.356Z,60.92
2023-02-27T06:05:45.855Z,60.77
2023-02-27T06:08:15.710Z,61.95
2023-02-27T06:10:46.337Z,61.68
2023-02-27T06:13:17.082Z,60.86
2023-02-27T06:15:47.322Z,62.58
2023-02-27T06:18:19.293Z,60.60
2023-02-27T06:20:52.639Z,60.64
2023-02-27T06:23:22.682Z,60.66
2023-02-27T06:25:53.168Z,60.60
2023-02-27T06:28:23.112Z,60.23
2023-02-27T06:30:57.484Z,60.40
2023-02-27T06:33:28.749Z,60.11
2023-02-27T06:36:01.222Z,60.39
2023-02-27T06:38:31.565Z,60.29
2023-02-27T06:41:02.540Z,60.41
2023-02-27T06:43:34.811Z,60.37
2023-02-27T06:46:05.196Z,60.81
2023-02-27T06:48:36.397Z,60.52
2023-02-27T06:51:09.727Z,60.50
2023-02-27T06:53:39.659Z,60.47
2023-02-27T06:56:10.282Z,60.23
2023-02-27T06:58:40.182Z,60.25
2023-02-27T07:01:10.174Z,60.42
2023-02-27T07:03:40.087Z,60.27
2023-02-27T07:06:13.977Z,60.28
2023-02-27T07:09:01.861Z,60.30
2023-02-27T07:11:33.703Z,60.15
2023-02-27T07:14:03.676Z,59.75
2023-02-27T07:16:33.574Z,59.73
2023-02-27T07:19:03.470Z,59.94
2023-02-27T07:21:35.889Z,59.99
2023-02-27T07:24:06.332Z,59.77
2023-02-27T07:26:36.184Z,60.04
2023-02-27T07:29:06.361Z,60.07
2023-02-27T07:31:36.968Z,59.54
2023-02-27T07:34:06.952Z,59.35
2023-02-27T07:36:39.424Z,59.40
2023-02-27T07:39:10.706Z,59.10
2023-02-27T07:41:40.562Z,58.83
2023-02-27T07:44:10.438Z,59.12
2023-02-27T07:46:40.700Z,59.21
2023-02-27T07:49:10.540Z,59.02
2023-02-27T07:51:43.910Z,58.36
2023-02-27T07:54:13.916Z,58.38
2023-02-27T07:56:43.831Z,58.40
2023-02-27T07:59:14.005Z,58.32
2023-02-27T08:01:48.510Z,58.31
2023-02-27T08:04:24.681Z,58.21
2023-02-27T08:07:00.735Z,57.80
2023-02-27T08:09:30.886Z,57.54
2023-02-27T08:12:03.035Z,57.49
2023-02-27T08:14:33.041Z,57.14
2023-02-27T08:17:03.181Z,57.53
2023-02-27T08:19:33.086Z,57.38
2023-02-27T08:22:05.557Z,57.10
2023-02-27T08:24:35.498Z,56.87
2023-02-27T08:27:05.401Z,57.01
2023-02-27T08:29:35.639Z,56.89
2023-02-27T08:32:05.908Z,56.90
2023-02-27T08:34:35.870Z,56.80
2023-02-27T08:37:08.318Z,56.36
2023-02-27T08:39:38.188Z,56.17
2023-02-27T08:42:08.133Z,56.07
2023-02-27T08:44:38.122Z,55.91
2023-02-27T08:47:08.110Z,55.77
2023-02-27T08:49:38.072Z,55.85
2023-02-27T08:52:10.525Z,55.64
2023-02-27T08:54:40.480Z,55.37
2023-02-27T08:57:10.519Z,55.51
2023-02-27T08:59:40.541Z,55.08
2023-02-27T09:02:10.505Z,55.09
2023-02-27T09:04:40.403Z,54.83
2023-02-27T09:07:13.385Z,54.82
2023-02-27T09:09:43.212Z,54.96
2023-02-27T09:12:13.156Z,53.79
2023-02-27T09:14:42.990Z,53.79
2023-02-27T09:17:12.868Z,53.41
2023-02-27T09:19:42.673Z,53.54
2023-02-27T09:22:15.189Z,53.45
2023-02-27T09:24:45.033Z,53.48
2023-02-27T09:27:15.247Z,53.00
2023-02-27T09:29:45.370Z,53.06
2023-02-27T09:32:15.314Z,51.90
2023-02-27T09:34:45.242Z,52.17
2023-02-27T09:37:19.263Z,51.97
2023-02-27T09:39:49.314Z,51.32
2023-02-27T09:42:22.622Z,51.37
2023-02-27T09:44:55.204Z,50.79
2023-02-27T09:47:31.097Z,50.92
2023-02-27T09:50:04.487Z,51.06
2023-02-27T09:52:40.266Z,50.36
2023-02-27T09:55:20.287Z,50.27
2023-02-27T09:57:57.888Z,50.02
2023-02-27T10:00:47.471Z,49.78
2023-02-27T10:03:38.157Z,49.59
2023-02-27T10:06:29.018Z,49.00
2023-02-27T10:09:15.245Z,48.41
2023-02-27T10:12:00.161Z,48.10
2023-02-27T10:14:42.295Z,47.93
2023-02-27T10:17:20.797Z,47.89
2023-02-27T10:19:53.800Z,47.81
2023-02-27T10:22:32.581Z,47.09
2023-02-27T10:25:24.780Z,46.55
2023-02-27T10:28:11.607Z,46.00
2023-02-27T10:30:42.020Z,45.77
2023-02-27T10:33:18.291Z,45.75
2023-02-27T10:35:50.836Z,45.31
2023-02-27T10:38:32.030Z,44.85
2023-02-27T10:41:06.743Z,44.69
2023-02-27T10:43:37.799Z,43.97
2023-02-27T10:46:16.880Z,44.22
2023-02-27T10:48:47.470Z,43.70
2023-02-27T10:51:30.394Z,43.31
2023-02-27T10:54:24.538Z,42.74
2023-02-27T10:57:00.154Z,42.66
2023-02-27T10:59:34.441Z,42.71
2023-02-27T11:02:07.516Z,42.21
2023-02-27T11:04:42.325Z,42.10
2023-02-27T11:07:16.856Z,41.38
2023-02-27T11:10:02.865Z,40.98
2023-02-27T11:12:37.296Z,40.87
2023-02-27T11:15:26.323Z,40.38
2023-02-27T11:17:58.733Z,39.62
2023-02-27T11:20:40.628Z,39.16
2023-02-27T11:23:18.977Z,38.06
2023-02-27T11:25:49.749Z,38.43
2023-02-27T11:28:29.954Z,36.87
2023-02-27T11:31:04.329Z,36.52
2023-02-27T11:33:41.853Z,35.02
2023-02-27T11:36:12.572Z,35.62
2023-02-27T11:38:42.457Z,34.09
2023-02-27T11:41:12.726Z,33.23
2023-02-27T11:43:53.903Z,33.40
2023-02-27T11:46:47.417Z,32.29
2023-02-27T11:49:32.783Z,32.49
2023-02-27T11:52:12.687Z,31.44
2023-02-27T11:54:48.523Z,31.71
2023-02-27T11:57:27.851Z,30.85
2023-02-27T12:00:06.636Z,31.14
2023-02-27T12:02:55.275Z,30.05
2023-02-27T12:05:32.255Z,30.52
2023-02-27T12:08:16.442Z,29.38
2023-02-27T12:11:13.159Z,30.05
2023-02-27T12:14:07.075Z,29.45
2023-02-27T12:16:45.953Z,29.51
2023-02-27T12:19:24.253Z,27.83
2023-02-27T12:22:00.974Z,26.74
2023-02-27T12:24:40.931Z,26.04
2023-02-27T12:27:21.984Z,26.71
2023-02-27T12:29:58.845Z,25.49
2023-02-27T12:32:41.658Z,26.24
2023-02-27T12:35:20.707Z,26.34
2023-02-27T12:37:51.194Z,26.41
2023-02-27T12:40:23.297Z,24.07
2023-02-27T12:43:15.748Z,24.87
2023-02-27T12:46:05.184Z,25.73
2023-02-27T12:49:01.348Z,24.70
2023-02-27T12:51:43.270Z,24.17
2023-02-27T12:54:26.746Z,25.03
2023-02-27T12:57:15.502Z,24.10
2023-02-27T13:00:09.688Z,23.33
2023-02-27T13:02:52.701Z,24.24
2023-02-27T13:05:44.417Z,23.49
2023-02-27T13:08:48.439Z,22.97
2023-02-27T13:11:27.989Z,26.00
2023-02-27T13:14:02.985Z,23.76
2023-02-27T13:16:39.135Z,22.45
2023-02-27T13:19:18.205Z,22.63
2023-02-27T13:21:57.925Z,21.83
2023-02-27T13:24:30.371Z,22.79
2023-02-27T13:27:06.479Z,23.29
2023-02-27T13:29:41.178Z,23.93
2023-02-27T13:32:41.703Z,26.84
2023-02-27T13:35:31.995Z,24.28
2023-02-27T13:38:07.119Z,23.61
2023-02-27T13:40:40.908Z,24.05
2023-02-27T13:43:31.244Z,23.25
2023-02-27T13:46:02.554Z,21.35
2023-02-27T13:48:52.582Z,21.42
2023-02-27T13:51:46.943Z,20.69
2023-02-27T13:54:30.850Z,20.59
2023-02-27T13:57:21.796Z,20.48
2023-02-27T14:00:05.115Z,21.66
2023-02-27T14:03:00.002Z,20.41
2023-02-27T14:05:38.155Z,20.57
2023-02-27T14:08:16.600Z,20.30
2023-02-27T14:11:01.191Z,21.45
2023-02-27T14:14:00.731Z,20.60
2023-02-27T14:16:56.024Z,21.48
2023-02-27T14:20:05.422Z,24.36
2023-02-27T14:22:52.123Z,25.11
2023-02-27T14:25:29.083Z,23.58
2023-02-27T14:28:05.066Z,21.50
2023-02-27T14:30:43.430Z,22.20
2023-02-27T14:33:37.432Z,22.24
2023-02-27T14:36:16.837Z,22.36
2023-02-27T14:38:46.924Z,22.93
2023-02-27T14:41:28.871Z,22.06
2023-02-27T14:44:02.320Z,22.18
2023-02-27T14:46:35.724Z,21.97
2023-02-27T14:49:09.567Z,23.19
2023-02-27T14:51:40.973Z,23.88
2023-02-27T14:54:17.964Z,24.81
2023-02-27T14:56:57.101Z,25.16
2023-02-27T14:59:33.970Z,27.39
2023-02-27T15:02:06.552Z,24.49
2023-02-27T15:04:37.402Z,24.53
2023-02-27T15:07:07.541Z,26.40
2023-02-27T15:09:43.454Z,28.77
2023-02-27T15:12:21.328Z,25.60
2023-02-27T15:14:57.695Z,26.63
2023-02-27T15:17:30.057Z,25.71
2023-02-27T15:20:01.687Z,24.94
2023-02-27T15:22:39.804Z,24.24
2023-02-27T15:25:29.918Z,25.31
2023-02-27T15:28:04.174Z,26.08
2023-02-27T15:30:37.270Z,25.23
2023-02-27T15:33:07.488Z,27.33
2023-02-27T15:35:40.784Z,28.40
2023-02-27T15:38:27.150Z,29.19
2023-02-27T15:40:58.557Z,30.43
2023-02-27T15:43:31.182Z,30.57
2023-02-27T15:46:04.018Z,31.69
2023-02-27T15:48:35.533Z,32.34
2023-02-27T15:51:07.155Z,32.78
2023-02-27T15:53:40.428Z,32.99
2023-02-27T15:56:16.973Z,32.80
2023-02-27T15:58:54.415Z,33.21
2023-02-27T16:01:30.734Z,33.12
2023-02-27T16:04:04.930Z,33.75
2023-02-27T16:06:38.209Z,34.47
2023-02-27T16:09:22.012Z,34.44
2023-02-27T16:11:52.290Z,33.86
2023-02-27T16:14:41.432Z,34.58
2023-02-27T16:17:31.061Z,34.70
2023-02-27T16:20:04.996Z,35.08
2023-02-27T16:22:36.383Z,34.76
2023-02-27T16:25:21.211Z,34.79
2023-02-27T16:27:54.093Z,35.42
2023-02-27T16:30:25.575Z,35.68
2023-02-27T16:33:04.418Z,36.06
2023-02-27T16:35:35.481Z,35.78
2023-02-27T16:38:05.502Z,35.95
2023-02-27T16:40:35.446Z,36.29
2023-02-27T16:43:05.431Z,36.74
2023-02-27T16:45:35.384Z,36.67
2023-02-27T16:48:08.345Z,36.87
2023-02-27T16:50:45.060Z,36.47
2023-02-27T16:53:14.981Z,36.52
2023-02-27T16:55:44.978Z,36.90
2023-02-27T16:58:18.974Z,36.44
2023-02-27T17:00:49.322Z,36.92
2023-02-27T17:03:21.902Z,37.24
2023-02-27T17:05:52.115Z,36.91
2023-02-27T17:08:22.457Z,37.23
2023-02-27T17:10:53.499Z,36.89
2023-02-27T17:13:23.422Z,37.26
2023-02-27T17:15:53.366Z,37.26
2023-02-27T17:18:26.310Z,37.37
2023-02-27T17:20:57.307Z,37.61
2023-02-27T17:23:27.270Z,37.51
2023-02-27T17:25:57.719Z,38.02
2023-02-27T17:28:28.588Z,38.39
2023-02-27T17:30:58.615Z,38.37
2023-02-27T17:33:33.266Z,38.50
2023-02-27T17:36:07.818Z,38.50
2023-02-27T17:38:38.161Z,38.91
2023-02-27T17:41:10.032Z,38.85
2023-02-27T17:43:40.402Z,38.69
2023-02-27T17:46:11.387Z,38.27
2023-02-27T17:48:43.897Z,38.71
2023-02-27T17:51:16.812Z,38.60
2023-02-27T17:53:46.809Z,38.84
2023-02-27T17:56:17.178Z,39.03
2023-02-27T17:58:47.544Z,38.74
2023-02-27T18:01:21.571Z,38.99
2023-02-27T18:03:54.926Z,39.11
2023-02-27T18:06:25.363Z,39.26
2023-02-27T18:08:55.321Z,39.48
2023-02-27T18:11:25.614Z,39.37
2023-02-27T18:13:55.513Z,39.11
2023-02-27T18:16:25.917Z,39.47
2023-02-27T18:18:58.624Z,39.44
2023-02-27T18:21:28.555Z,39.51
2023-02-27T18:23:58.577Z,39.82
2023-02-27T18:26:31.493Z,39.96
2023-02-27T18:29:02.130Z,39.76
2023-02-27T18:31:34.904Z,39.98
2023-02-27T18:34:08.221Z,39.97
2023-02-27T18:36:39.356Z,39.97
2023-02-27T18:39:10.445Z,40.43
2023-02-27T18:41:40.893Z,39.99
2023-02-27T18:44:11.838Z,40.22
2023-02-27T18:46:41.879Z,40.22
2023-02-27T18:49:15.825Z,40.54
2023-02-27T18:51:45.937Z,40.53
2023-02-27T18:54:16.859Z,40.76
2023-02-27T18:56:48.601Z,40.63
2023-02-27T18:59:18.430Z,40.76
2023-02-27T19:01:48.246Z,41.04
2023-02-27T19:04:20.738Z,41.07
2023-02-27T19:06:50.697Z,41.11
2023-02-27T19:09:22.127Z,41.50
2023-02-27T19:11:52.150Z,41.38
2023-02-27T19:14:22.083Z,41.13
2023-02-27T19:16:52.063Z,41.21
2023-02-27T19:19:28.185Z,41.86
2023-02-27T19:21:58.439Z,41.20
2023-02-27T19:24:28.357Z,41.65
2023-02-27T19:26:58.220Z,41.84
2023-02-27T19:29:28.103Z,41.95
2023-02-27T19:31:58.814Z,42.34
2023-02-27T19:34:31.347Z,42.19
2023-02-27T19:37:01.244Z,42.23
2023-02-27T19:39:31.144Z,42.07
2023-02-27T19:42:01.064Z,42.51
2023-02-27T19:44:30.960Z,42.78
2023-02-27T19:47:01.032Z,42.81
2023-02-27T19:49:33.653Z,43.75
2023-02-27T19:52:03.485Z,43.70
2023-02-27T19:54:33.442Z,43.89
2023-02-27T19:57:03.748Z,44.50
2023-02-27T19:59:33.683Z,44.38
2023-02-27T20:02:03.839Z,44.71
2023-02-27T20:04:37.196Z,44.80
2023-02-27T20:07:07.231Z,44.99
2023-02-27T20:09:37.220Z,45.18
2023-02-27T20:12:07.774Z,45.47
2023-02-27T20:14:38.181Z,45.58
2023-02-27T20:17:08.113Z,45.32
2023-02-27T20:19:41.547Z,45.64
2023-02-27T20:22:13.524Z,46.04
2023-02-27T20:24:44.762Z,45.76
2023-02-27T20:27:15.710Z,45.92
2023-02-27T20:29:46.045Z,45.94
2023-02-27T20:32:16.153Z,45.90
2023-02-27T20:34:49.125Z,45.59
2023-02-27T20:37:19.403Z,45.50
2023-02-27T20:39:51.171Z,45.52
2023-02-27T20:42:21.239Z,45.65
2023-02-27T20:44:53.222Z,45.76
2023-02-27T20:47:23.459Z,45.25
2023-02-27T20:49:56.061Z,45.02
2023-02-27T20:52:26.004Z,45.35
2023-02-27T20:54:56.028Z,45.23
2023-02-27T20:57:26.027Z,45.32
2023-02-27T20:59:55.991Z,45.53
2023-02-27T21:02:26.005Z,45.24
2023-02-27T21:04:58.686Z,45.32
2023-02-27T21:07:28.836Z,45.46
2023-02-27T21:09:58.694Z,45.46
2023-02-27T21:12:28.575Z,45.63
2023-02-27T21:14:58.661Z,46.01
2023-02-27T21:17:28.879Z,45.77
2023-02-27T21:20:06.623Z,46.74
2023-02-27T21:22:38.426Z,46.37
2023-02-27T21:25:09.333Z,46.81
2023-02-27T21:27:39.244Z,47.39
2023-02-27T21:30:11.130Z,47.58
2023-02-27T21:32:41.158Z,47.45
2023-02-27T21:35:24.416Z,47.94
2023-02-27T21:37:56.798Z,48.46
2023-02-27T21:40:26.658Z,48.32
2023-02-27T21:42:56.518Z,49.01
2023-02-27T21:45:26.458Z,49.04
2023-02-27T21:47:56.688Z,49.00
2023-02-27T21:50:33.982Z,49.36
2023-02-27T21:53:03.910Z,49.62
2023-02-27T21:55:33.758Z,50.06
2023-02-27T21:58:06.061Z,49.68
2023-02-27T22:00:37.461Z,50.18
2023-02-27T22:03:07.358Z,50.41
2023-02-27T22:05:43.192Z,50.19
2023-02-27T22:08:13.524Z,50.25
2023-02-27T22:10:48.549Z,50.56
2023-02-27T22:13:18.676Z,50.39
2023-02-27T22:15:48.549Z,50.36
2023-02-27T22:18:18.436Z,50.83
2023-02-27T22:20:51.327Z,50.60
2023-02-27T22:23:21.262Z,50.98
2023-02-27T22:26:01.592Z,50.86
2023-02-27T22:28:32.774Z,51.05
2023-02-27T22:31:10.895Z,51.46
2023-02-27T22:33:42.417Z,51.66
2023-02-27T22:36:17.364Z,51.92
2023-02-27T22:38:47.270Z,52.03
2023-02-27T22:41:19.415Z,52.16
2023-02-27T22:43:49.544Z,51.58
2023-02-27T22:46:26.029Z,52.06
2023-02-27T22:48:59.539Z,52.21
2023-02-27T22:51:33.396Z,52.16
2023-02-27T22:54:06.790Z,52.41
2023-02-27T22:56:37.123Z,52.94
2023-02-27T22:59:08.292Z,53.01
2023-02-27T23:01:40.151Z,52.81
2023-02-27T23:04:11.926Z,53.33
2023-02-27T23:06:44.393Z,53.52
2023-02-27T23:09:17.233Z,53.67
2023-02-27T23:11:48.160Z,54.00
2023-02-27T23:14:18.514Z,53.77
2023-02-27T23:16:48.476Z,54.40
2023-02-27T23:19:20.839Z,54.26
2023-02-27T23:21:53.269Z,54.41
2023-02-27T23:24:23.258Z,54.66
2023-02-27T23:26:54.847Z,54.57
2023-02-27T23:29:24.699Z,54.50
2023-02-27T23:31:54.772Z,54.91
2023-02-27T23:34:24.878Z,54.48
2023-02-27T23:36:57.293Z,54.80
2023-02-27T23:39:27.199Z,55.07
2023-02-27T23:41:57.026Z,55.09
2023-02-27T23:44:29.060Z,55.81
2023-02-27T23:46:58.874Z,55.43
2023-02-27T23:49:28.743Z,55.33
2023-02-27T23:52:01.178Z,55.61
2023-02-27T23:54:31.002Z,55.79
2023-02-27T23:57:00.858Z,55.69
2023-02-27T23:59:31.414Z,55.89
